createdAt,value
2018-09-18T00:02:27.115Z,14.9
2018-09-18T00:07:27.137Z,14.8
2018-09-18T00:12:27.373Z,14.8
2018-09-18T00:17:27.753Z,14.8
2018-09-18T00:22:27.136Z,14.7
2018-09-18T00:27:27.545Z,14.7
2018-09-18T00:32:27.762Z,14.6
2018-09-18T00:37:26.772Z,14.5
2018-09-18T00:42:27.580Z,14.4
2018-09-18T00:47:27.374Z,14.4
2018-09-18T00:52:27.523Z,14.1
2018-09-18T00:57:27.449Z,14.0
2018-09-18T01:02:28.070Z,14.0
2018-09-18T01:07:27.727Z,14.0
2018-09-18T01:12:27.540Z,14.0
2018-09-18T01:17:27.335Z,13.9
2018-09-18T01:22:27.042Z,13.8
2018-09-18T01:27:27.128Z,13.8
2018-09-18T01:32:27.883Z,13.7
2018-09-18T01:37:28.017Z,13.7
2018-09-18T01:42:27.111Z,13.6
2018-09-18T01:47:27.046Z,13.7
2018-09-18T01:52:27.521Z,13.6
2018-09-18T01:57:27.309Z,13.5
2018-09-18T02:02:26.763Z,13.4
2018-09-18T02:07:27.239Z,13.4
2018-09-18T02:12:27.585Z,13.4
2018-09-18T02:17:27.813Z,13.4
2018-09-18T02:22:27.306Z,13.3
2018-09-18T02:27:28.970Z,13.3
2018-09-18T02:32:27.012Z,13.3
2018-09-18T02:37:27.496Z,13.3
2018-09-18T02:42:26.657Z,13.1
2018-09-18T02:47:27.760Z,13.1
2018-09-18T02:52:28.858Z,13.1
2018-09-18T02:57:27.540Z,13.0
2018-09-18T03:02:27.462Z,13.1
2018-09-18T03:07:27.284Z,13.0
2018-09-18T03:12:27.556Z,13.0
2018-09-18T03:17:27.825Z,12.9
2018-09-18T03:22:27.351Z,12.7
2018-09-18T03:27:27.135Z,12.6
2018-09-18T03:32:27.418Z,12.6
2018-09-18T03:37:27.328Z,12.5
2018-09-18T03:42:27.296Z,12.5
2018-09-18T03:47:27.410Z,12.5
2018-09-18T03:52:27.276Z,12.6
2018-09-18T03:57:28.100Z,12.6
2018-09-18T04:02:27.620Z,12.5
2018-09-18T04:07:27.568Z,12.5
2018-09-18T04:12:27.740Z,12.6
2018-09-18T04:17:27.761Z,12.6
2018-09-18T04:22:27.708Z,12.6
2018-09-18T04:27:27.859Z,12.6
2018-09-18T04:32:27.905Z,12.5
2018-09-18T04:37:27.726Z,12.5
2018-09-18T04:42:28.277Z,12.5
2018-09-18T04:47:27.286Z,12.4
2018-09-18T04:52:28.275Z,12.3
2018-09-18T04:57:27.346Z,12.3
2018-09-18T05:02:28.141Z,12.2
2018-09-18T05:07:28.062Z,12.3
2018-09-18T05:12:27.702Z,12.3
2018-09-18T05:17:28.202Z,12.2
2018-09-18T05:22:27.311Z,12.3
2018-09-18T05:27:27.335Z,12.4
2018-09-18T05:32:28.759Z,12.4
2018-09-18T05:37:28.207Z,12.5
2018-09-18T05:42:28.573Z,12.7
2018-09-18T05:47:27.859Z,12.8
2018-09-18T05:52:28.200Z,13.0
2018-09-18T05:57:27.582Z,13.2
2018-09-18T06:02:28.745Z,13.4
2018-09-18T06:07:27.340Z,13.8
2018-09-18T06:12:28.210Z,13.8
2018-09-18T06:17:27.129Z,14.3
2018-09-18T06:22:28.071Z,14.3
2018-09-18T06:27:28.040Z,14.6
2018-09-18T06:32:27.950Z,14.9
2018-09-18T06:37:27.498Z,15.4
2018-09-18T06:42:28.164Z,15.6
2018-09-18T06:47:28.523Z,15.6
2018-09-18T06:52:27.487Z,15.9
2018-09-18T06:57:27.743Z,16.5
2018-09-18T07:02:27.496Z,16.5
2018-09-18T07:07:28.624Z,16.8
2018-09-18T07:12:27.721Z,17.1
2018-09-18T07:17:28.517Z,17.4
2018-09-18T07:22:27.881Z,17.7
2018-09-18T07:27:28.134Z,18.0
2018-09-18T07:32:27.453Z,18.3
2018-09-18T07:37:27.540Z,18.6
2018-09-18T07:42:28.705Z,18.9
2018-09-18T07:47:28.363Z,19.2
2018-09-18T07:52:28.300Z,19.5
2018-09-18T07:57:27.966Z,19.9
2018-09-18T08:02:27.509Z,20.3
2018-09-18T08:07:28.417Z,20.7
2018-09-18T08:12:28.129Z,21.1
2018-09-18T08:22:28.252Z,21.9
2018-09-18T08:27:28.112Z,22.2
2018-09-18T08:32:28.648Z,22.6
2018-09-18T08:37:27.864Z,23.1
2018-09-18T08:42:28.277Z,23.6
2018-09-18T08:47:28.350Z,24.1
2018-09-18T08:52:28.066Z,24.5
2018-09-18T08:57:29.022Z,25.0
2018-09-18T09:02:28.256Z,25.4
2018-09-18T09:07:29.262Z,25.8
2018-09-18T09:12:28.007Z,26.3
2018-09-18T09:17:27.592Z,26.7
2018-09-18T09:22:28.367Z,27.6
2018-09-18T09:27:28.024Z,27.6
2018-09-18T09:32:28.257Z,28.6
2018-09-18T09:37:27.813Z,29.2
2018-09-18T09:42:28.054Z,29.1
2018-09-18T09:47:27.819Z,29.7
2018-09-18T09:52:28.099Z,29.7
2018-09-18T09:57:27.558Z,30.6
2018-09-18T10:02:28.117Z,30.5
2018-09-18T10:07:27.510Z,31.2
2018-09-18T10:12:28.376Z,31.2
2018-09-18T10:17:28.704Z,31.2
2018-09-18T10:22:28.532Z,31.4
2018-09-18T10:27:28.511Z,32.0
2018-09-18T10:32:29.299Z,32.4
2018-09-18T10:37:27.956Z,32.5
2018-09-18T10:42:28.327Z,32.6
2018-09-18T10:47:27.836Z,32.5
2018-09-18T10:52:28.346Z,32.6
2018-09-18T10:57:27.787Z,32.8
2018-09-18T11:02:27.823Z,32.8
2018-09-18T11:07:27.924Z,32.7
2018-09-18T11:12:28.530Z,32.5
2018-09-18T11:17:28.235Z,32.8
2018-09-18T11:22:28.619Z,33.1
2018-09-18T11:27:28.463Z,33.8
2018-09-18T11:32:28.515Z,34.3
2018-09-18T11:37:28.216Z,34.1
2018-09-18T11:42:28.513Z,34.1
2018-09-18T11:47:28.233Z,34.0
2018-09-18T11:52:28.266Z,34.0
2018-09-18T11:57:27.639Z,33.7
2018-09-18T12:02:28.044Z,33.2
2018-09-18T12:07:29.211Z,33.2
2018-09-18T12:12:28.703Z,32.6
2018-09-18T12:17:28.235Z,32.8
2018-09-18T12:22:27.837Z,32.9
2018-09-18T12:27:27.728Z,33.2
2018-09-18T12:32:27.453Z,33.3
2018-09-18T12:37:28.442Z,33.3
2018-09-18T12:42:28.100Z,33.5
2018-09-18T12:47:28.033Z,33.4
2018-09-18T12:52:27.708Z,33.3
2018-09-18T12:57:27.559Z,34.5
2018-09-18T13:02:27.992Z,35.0
2018-09-18T13:07:27.913Z,35.0
2018-09-18T13:12:27.736Z,35.1
2018-09-18T13:17:28.661Z,35.4
2018-09-18T13:22:28.414Z,34.8
2018-09-18T13:27:28.542Z,34.4
2018-09-18T13:32:28.018Z,34.7
2018-09-18T13:37:27.476Z,34.8
2018-09-18T13:42:28.250Z,36.1
2018-09-18T13:47:27.492Z,36.1
2018-09-18T13:52:27.335Z,36.3
2018-09-18T13:57:27.678Z,36.7
2018-09-18T14:02:28.495Z,36.7
2018-09-18T14:07:28.085Z,37.7
2018-09-18T14:12:27.784Z,37.7
2018-09-18T14:17:28.529Z,38.9
2018-09-18T14:22:27.237Z,38.8
2018-09-18T14:27:28.106Z,38.5
2018-09-18T14:32:28.526Z,39.1
2018-09-18T14:37:28.589Z,39.1
2018-09-18T14:42:27.703Z,39.3
2018-09-18T14:47:28.169Z,40.5
2018-09-18T14:52:29.029Z,41.8
2018-09-18T14:57:27.874Z,44.0
2018-09-18T15:02:27.398Z,44.0
2018-09-18T15:07:28.720Z,45.2
2018-09-18T15:12:27.776Z,45.1
2018-09-18T15:17:28.694Z,44.7
2018-09-18T15:22:27.804Z,44.9
2018-09-18T15:27:27.630Z,39.8
2018-09-18T15:32:28.419Z,39.7
2018-09-18T15:37:28.385Z,35.6
2018-09-18T15:42:27.764Z,33.3
2018-09-18T15:47:28.602Z,32.0
2018-09-18T15:52:27.697Z,30.8
2018-09-18T15:57:27.678Z,29.1
2018-09-18T16:02:27.141Z,27.3
2018-09-18T16:07:28.539Z,27.2
2018-09-18T16:12:27.449Z,26.8
2018-09-18T16:17:28.558Z,26.8
2018-09-18T16:22:28.013Z,26.1
2018-09-18T16:27:28.085Z,26.0
2018-09-18T16:32:28.167Z,25.3
2018-09-18T16:37:27.812Z,24.6
2018-09-18T16:42:27.855Z,24.1
2018-09-18T16:47:27.679Z,23.3
2018-09-18T16:52:27.439Z,22.7
2018-09-18T16:57:27.910Z,21.9
2018-09-18T17:02:28.130Z,21.5
2018-09-18T17:07:28.080Z,21.4
2018-09-18T17:12:27.846Z,21.2
2018-09-18T17:17:28.248Z,20.7
2018-09-18T17:22:28.132Z,20.5
2018-09-18T17:27:28.806Z,20.4
2018-09-18T17:32:27.668Z,20.0
2018-09-18T17:37:28.112Z,19.8
2018-09-18T17:42:27.843Z,19.7
2018-09-18T17:47:27.700Z,19.6
2018-09-18T17:52:27.345Z,19.6
2018-09-18T17:57:27.293Z,19.6
2018-09-18T18:02:27.680Z,19.6
2018-09-18T18:07:27.559Z,19.6
2018-09-18T18:12:27.155Z,19.8
2018-09-18T18:17:28.266Z,19.8
2018-09-18T18:22:26.992Z,19.8
2018-09-18T18:27:27.455Z,19.5
2018-09-18T18:32:27.238Z,19.4
2018-09-18T18:37:27.919Z,19.4
2018-09-18T18:42:27.678Z,19.2
2018-09-18T18:47:27.649Z,19.2
2018-09-18T18:52:26.972Z,19.1
2018-09-18T18:57:27.441Z,19.0
2018-09-18T19:02:27.187Z,19.0
2018-09-18T19:07:27.721Z,19.0
2018-09-18T19:12:27.167Z,18.8
2018-09-18T19:17:28.094Z,18.7
2018-09-18T19:22:27.232Z,18.6
2018-09-18T19:27:26.946Z,18.5
2018-09-18T19:32:27.326Z,18.5
2018-09-18T19:37:28.620Z,18.3
2018-09-18T19:42:27.421Z,18.1
2018-09-18T19:47:28.663Z,18.1
2018-09-18T19:52:27.249Z,18.1
2018-09-18T19:57:27.030Z,18.0
2018-09-18T20:02:27.301Z,18.0
2018-09-18T20:07:27.607Z,18.0
2018-09-18T20:12:27.358Z,18.0
2018-09-18T20:17:28.097Z,17.9
2018-09-18T20:22:27.292Z,17.8
2018-09-18T20:27:27.193Z,17.8
2018-09-18T20:32:27.214Z,17.8
2018-09-18T20:37:28.833Z,17.8
2018-09-18T20:42:27.517Z,17.8
2018-09-18T20:47:27.307Z,17.8
2018-09-18T20:52:27.345Z,17.8
2018-09-18T20:57:27.154Z,17.8
2018-09-18T21:02:27.783Z,17.9
2018-09-18T21:07:27.927Z,17.8
2018-09-18T21:12:27.772Z,17.9
2018-09-18T21:17:27.814Z,17.9
2018-09-18T21:22:27.504Z,17.8
2018-09-18T21:27:27.212Z,17.6
2018-09-18T21:32:28.113Z,17.5
2018-09-18T21:37:27.261Z,17.5
2018-09-18T21:42:26.857Z,17.5
2018-09-18T21:47:27.327Z,17.6
2018-09-18T21:52:27.885Z,17.6
2018-09-18T21:57:27.597Z,17.6
2018-09-18T22:02:27.657Z,17.6
2018-09-18T22:07:27.591Z,17.5
2018-09-18T22:12:27.690Z,17.5
2018-09-18T22:23:04.689Z,17.3
2018-09-18T22:28:04.758Z,17.3
2018-09-18T22:33:03.868Z,17.2
2018-09-18T22:38:03.451Z,17.2
2018-09-18T22:43:03.823Z,17.2
2018-09-18T22:48:03.355Z,17.2
2018-09-18T22:53:03.226Z,17.2
2018-09-18T22:58:03.943Z,17.1
2018-09-18T23:03:04.115Z,16.9
2018-09-18T23:08:04.012Z,16.8
2018-09-18T23:12:27.596Z,16.9
2018-09-18T23:17:28.651Z,16.9
2018-09-18T23:22:27.349Z,16.9
2018-09-18T23:27:27.498Z,16.8
2018-09-18T23:32:27.204Z,16.8
2018-09-18T23:37:26.779Z,16.8
2018-09-18T23:42:27.596Z,16.8
2018-09-18T23:47:27.550Z,16.8
2018-09-18T23:52:27.294Z,16.8
2018-09-18T23:57:27.313Z,16.9
